sensor_id;sensor_type;location;lat;lon;timestamp;pressure;altitude;pressure_sealevel;temperature;humidity
20987;BME280;10652;50.306;8.570;2023-07-28T00:04:01;97151.06;;;16.01;100.00
20987;BME280;10652;50.306;8.570;2023-07-28T00:08:06;97145.66;;;16.03;100.00
20987;BME280;10652;50.306;8.570;2023-07-28T00:12:08;97159.00;;;16.01;100.00
20987;BME280;10652;50.306;8.570;2023-07-28T00:16:10;97150.22;;;16.01;100.00
20987;BME280;10652;50.306;8.570;2023-07-28T00:20:12;97150.09;;;16.02;100.00
20987;BME280;10652;50.306;8.570;2023-07-28T00:24:15;97148.31;;;16.03;100.00
20987;BME280;10652;50.306;8.570;2023-07-28T00:28:17;97138.56;;;16.03;100.00
20987;BME280;10652;50.306;8.570;2023-07-28T00:32:19;97139.38;;;16.04;100.00
20987;BME280;10652;50.306;8.570;2023-07-28T00:36:21;97134.06;;;16.04;100.00
20987;BME280;10652;50.306;8.570;2023-07-28T00:40:24;97120.63;;;15.96;100.00
20987;BME280;10652;50.306;8.570;2023-07-28T00:44:26;97121.84;;;15.92;100.00
20987;BME280;10652;50.306;8.570;2023-07-28T00:48:28;97117.78;;;15.88;100.00
20987;BME280;10652;50.306;8.570;2023-07-28T00:52:31;97123.56;;;15.82;100.00
20987;BME280;10652;50.306;8.570;2023-07-28T00:56:33;97123.56;;;15.82;100.00
20987;BME280;10652;50.306;8.570;2023-07-28T01:00:36;97123.56;;;15.82;100.00
20987;BME280;10652;50.306;8.570;2023-07-28T01:04:40;97123.56;;;15.82;100.00
20987;BME280;10652;50.306;8.570;2023-07-28T01:08:49;97123.56;;;15.82;100.00
20987;BME280;10652;50.306;8.570;2023-07-28T01:12:55;97130.56;;;15.83;100.00
20987;BME280;10652;50.306;8.570;2023-07-28T01:16:57;97134.16;;;15.82;100.00
20987;BME280;10652;50.306;8.570;2023-07-28T01:21:03;97118.28;;;15.82;100.00
20987;BME280;10652;50.306;8.570;2023-07-28T01:25:36;97116.63;;;15.81;100.00
20987;BME280;10652;50.306;8.570;2023-07-28T01:29:41;97110.22;;;15.83;100.00
20987;BME280;10652;50.306;8.570;2023-07-28T01:33:44;97117.06;;;15.86;100.00
20987;BME280;10652;50.306;8.570;2023-07-28T01:37:46;97116.09;;;15.87;100.00
20987;BME280;10652;50.306;8.570;2023-07-28T01:41:52;97110.78;;;15.87;100.00
20987;BME280;10652;50.306;8.570;2023-07-28T01:45:54;97113.44;;;15.87;100.00
20987;BME280;10652;50.306;8.570;2023-07-28T01:49:57;97109.94;;;15.86;100.00
20987;BME280;10652;50.306;8.570;2023-07-28T01:53:59;97111.06;;;15.84;100.00
20987;BME280;10652;50.306;8.570;2023-07-28T01:58:01;97106.59;;;15.84;100.00
20987;BME280;10652;50.306;8.570;2023-07-28T02:02:05;97105.50;;;15.87;100.00
20987;BME280;10652;50.306;8.570;2023-07-28T02:06:08;97103.56;;;15.89;100.00
20987;BME280;10652;50.306;8.570;2023-07-28T02:10:10;97105.25;;;15.90;100.00
20987;BME280;10652;50.306;8.570;2023-07-28T02:14:12;97119.47;;;15.89;100.00
20987;BME280;10652;50.306;8.570;2023-07-28T02:18:15;97119.47;;;15.89;100.00
20987;BME280;10652;50.306;8.570;2023-07-28T02:22:17;97115.84;;;15.90;100.00
20987;BME280;10652;50.306;8.570;2023-07-28T02:26:19;97119.59;;;15.87;100.00
20987;BME280;10652;50.306;8.570;2023-07-28T02:30:21;97112.22;;;15.91;100.00
20987;BME280;10652;50.306;8.570;2023-07-28T02:34:24;97119.19;;;15.92;100.00
20987;BME280;10652;50.306;8.570;2023-07-28T02:38:26;97108.88;;;15.89;100.00
20987;BME280;10652;50.306;8.570;2023-07-28T02:42:28;97112.47;;;15.88;100.00
20987;BME280;10652;50.306;8.570;2023-07-28T02:46:30;97120.44;;;15.88;100.00
20987;BME280;10652;50.306;8.570;2023-07-28T02:50:33;97121.66;;;15.84;100.00
20987;BME280;10652;50.306;8.570;2023-07-28T02:54:35;97116.34;;;15.84;100.00
20987;BME280;10652;50.306;8.570;2023-07-28T02:58:37;97118.75;;;15.87;100.00
20987;BME280;10652;50.306;8.570;2023-07-28T03:02:40;97114.16;;;15.89;100.00
20987;BME280;10652;50.306;8.570;2023-07-28T03:06:42;97113.44;;;15.87;100.00
20987;BME280;10652;50.306;8.570;2023-07-28T03:10:44;97111.06;;;15.84;100.00
20987;BME280;10652;50.306;8.570;2023-07-28T03:14:46;97107.00;;;15.80;100.00
20987;BME280;10652;50.306;8.570;2023-07-28T03:18:48;97117.13;;;15.74;100.00
20987;BME280;10652;50.306;8.570;2023-07-28T03:22:51;97113.28;;;15.67;100.00
20987;BME280;10652;50.306;8.570;2023-07-28T03:26:53;97117.88;;;15.65;100.00
20987;BME280;10652;50.306;8.570;2023-07-28T03:30:55;97110.44;;;15.59;100.00
20987;BME280;10652;50.306;8.570;2023-07-28T03:34:57;97102.13;;;15.53;100.00
20987;BME280;10652;50.306;8.570;2023-07-28T03:39:00;97103.22;;;15.50;100.00
20987;BME280;10652;50.306;8.570;2023-07-28T03:43:02;97110.44;;;15.48;100.00
20987;BME280;10652;50.306;8.570;2023-07-28T03:47:05;97107.06;;;15.46;100.00
20987;BME280;10652;50.306;8.570;2023-07-28T03:51:07;97100.34;;;15.42;100.00
20987;BME280;10652;50.306;8.570;2023-07-28T03:55:09;97104.47;;;15.35;100.00
20987;BME280;10652;50.306;8.570;2023-07-28T03:59:11;97125.03;;;15.31;100.00
20987;BME280;10652;50.306;8.570;2023-07-28T04:03:13;97124.06;;;15.32;100.00
20987;BME280;10652;50.306;8.570;2023-07-28T04:07:15;97129.00;;;15.37;100.00
20987;BME280;10652;50.306;8.570;2023-07-28T04:11:17;97124.66;;;15.47;100.00
20987;BME280;10652;50.306;8.570;2023-07-28T04:15:20;97130.63;;;15.49;100.00
20987;BME280;10652;50.306;8.570;2023-07-28T04:19:22;97134.75;;;15.53;100.00
20987;BME280;10652;50.306;8.570;2023-07-28T04:23:24;97134.47;;;15.56;100.00
20987;BME280;10652;50.306;8.570;2023-07-28T04:27:26;97140.41;;;15.60;100.00
20987;BME280;10652;50.306;8.570;2023-07-28T04:31:35;97143.63;;;15.63;100.00
20987;BME280;10652;50.306;8.570;2023-07-28T04:35:41;97149.16;;;15.71;100.00
20987;BME280;10652;50.306;8.570;2023-07-28T04:40:06;97158.72;;;15.84;100.00
20987;BME280;10652;50.306;8.570;2023-07-28T04:44:12;97160.88;;;15.90;100.00
20987;BME280;10652;50.306;8.570;2023-07-28T04:48:17;97165.19;;;15.91;100.00
20987;BME280;10652;50.306;8.570;2023-07-28T04:52:19;97156.75;;;15.97;100.00
20987;BME280;10652;50.306;8.570;2023-07-28T04:56:43;97156.25;;;16.03;100.00
20987;BME280;10652;50.306;8.570;2023-07-28T05:00:45;97166.78;;;16.14;100.00
20987;BME280;10652;50.306;8.570;2023-07-28T05:04:47;97166.97;;;16.22;100.00
20987;BME280;10652;50.306;8.570;2023-07-28T05:08:49;97171.97;;;16.36;100.00
20987;BME280;10652;50.306;8.570;2023-07-28T05:12:58;97174.56;;;16.47;100.00
20987;BME280;10652;50.306;8.570;2023-07-28T05:17:01;97187.75;;;16.58;100.00
20987;BME280;10652;50.306;8.570;2023-07-28T05:21:26;97191.59;;;16.65;100.00
20987;BME280;10652;50.306;8.570;2023-07-28T05:25:28;97196.22;;;16.73;100.00
20987;BME280;10652;50.306;8.570;2023-07-28T05:29:30;97195.44;;;16.82;100.00
20987;BME280;10652;50.306;8.570;2023-07-28T05:33:39;97195.78;;;16.89;100.00
20987;BME280;10652;50.306;8.570;2023-07-28T05:37:41;97193.84;;;17.00;100.00
20987;BME280;10652;50.306;8.570;2023-07-28T05:41:43;97193.63;;;17.13;100.00
20987;BME280;10652;50.306;8.570;2023-07-28T05:45:47;97189.59;;;17.19;100.00
20987;BME280;10652;50.306;8.570;2023-07-28T05:49:51;97184.78;;;17.33;100.00
20987;BME280;10652;50.306;8.570;2023-07-28T05:53:55;97183.75;;;17.55;100.00
20987;BME280;10652;50.306;8.570;2023-07-28T05:57:57;97187.97;;;17.58;100.00
20987;BME280;10652;50.306;8.570;2023-07-28T06:02:00;97191.72;;;17.65;100.00
20987;BME280;10652;50.306;8.570;2023-07-28T06:06:19;97189.94;;;17.75;100.00
20987;BME280;10652;50.306;8.570;2023-07-28T06:10:21;97190.38;;;17.99;100.00
20987;BME280;10652;50.306;8.570;2023-07-28T06:14:23;97195.84;;;18.07;100.00
20987;BME280;10652;50.306;8.570;2023-07-28T06:18:26;97204.06;;;17.94;100.00
20987;BME280;10652;50.306;8.570;2023-07-28T06:22:39;97200.44;;;17.95;100.00
20987;BME280;10652;50.306;8.570;2023-07-28T06:26:41;97202.81;;;18.08;100.00
20987;BME280;10652;50.306;8.570;2023-07-28T06:30:43;97202.00;;;18.27;100.00
20987;BME280;10652;50.306;8.570;2023-07-28T06:34:46;97201.72;;;18.59;100.00
20987;BME280;10652;50.306;8.570;2023-07-28T06:38:48;97209.88;;;18.94;100.00
20987;BME280;10652;50.306;8.570;2023-07-28T06:42:51;97209.09;;;19.30;100.00
20987;BME280;10652;50.306;8.570;2023-07-28T06:46:54;97218.56;;;19.52;96.64
20987;BME280;10652;50.306;8.570;2023-07-28T06:50:56;97220.28;;;19.71;94.66
20987;BME280;10652;50.306;8.570;2023-07-28T06:54:58;97226.59;;;19.70;94.32
20987;BME280;10652;50.306;8.570;2023-07-28T06:59:02;97222.81;;;19.63;94.86
20987;BME280;10652;50.306;8.570;2023-07-28T07:03:17;97226.84;;;19.40;94.95
20987;BME280;10652;50.306;8.570;2023-07-28T07:07:19;97231.56;;;19.18;95.83
20987;BME280;10652;50.306;8.570;2023-07-28T07:11:21;97235.50;;;19.05;96.32
20987;BME280;10652;50.306;8.570;2023-07-28T07:15:23;97248.72;;;18.87;97.04
20987;BME280;10652;50.306;8.570;2023-07-28T07:19:27;97243.84;;;18.73;97.89
20987;BME280;10652;50.306;8.570;2023-07-28T07:23:29;97254.91;;;18.59;98.12
20987;BME280;10652;50.306;8.570;2023-07-28T07:27:31;97252.53;;;18.56;99.73
20987;BME280;10652;50.306;8.570;2023-07-28T07:31:34;97252.00;;;18.52;100.00
20987;BME280;10652;50.306;8.570;2023-07-28T07:35:37;97254.66;;;18.52;100.00
20987;BME280;10652;50.306;8.570;2023-07-28T07:39:39;97260.94;;;18.61;100.00
20987;BME280;10652;50.306;8.570;2023-07-28T07:43:43;97266.25;;;18.80;100.00
20987;BME280;10652;50.306;8.570;2023-07-28T07:47:45;97265.22;;;19.00;99.94
20987;BME280;10652;50.306;8.570;2023-07-28T07:51:47;97264.91;;;19.22;100.00
20987;BME280;10652;50.306;8.570;2023-07-28T07:55:50;97272.69;;;19.53;98.49
20987;BME280;10652;50.306;8.570;2023-07-28T07:59:52;97274.91;;;19.85;96.16
20987;BME280;10652;50.306;8.570;2023-07-28T08:03:54;97270.13;;;19.88;94.13
20987;BME280;10652;50.306;8.570;2023-07-28T08:07:56;97279.53;;;19.83;93.57
20987;BME280;10652;50.306;8.570;2023-07-28T08:11:59;97275.88;;;19.93;93.58
20987;BME280;10652;50.306;8.570;2023-07-28T08:16:01;97285.53;;;19.94;92.82
20987;BME280;10652;50.306;8.570;2023-07-28T08:20:05;97289.63;;;19.89;92.38
20987;BME280;10652;50.306;8.570;2023-07-28T08:24:08;97289.34;;;19.82;92.87
20987;BME280;10652;50.306;8.570;2023-07-28T08:28:10;97294.06;;;19.70;92.75
20987;BME280;10652;50.306;8.570;2023-07-28T08:32:12;97294.22;;;19.59;93.92
20987;BME280;10652;50.306;8.570;2023-07-28T08:36:14;97300.09;;;19.63;94.34
20987;BME280;10652;50.306;8.570;2023-07-28T08:40:17;97303.69;;;19.71;94.92
20987;BME280;10652;50.306;8.570;2023-07-28T08:44:19;97304.41;;;19.73;94.16
20987;BME280;10652;50.306;8.570;2023-07-28T08:48:21;97313.16;;;20.03;95.80
20987;BME280;10652;50.306;8.570;2023-07-28T08:52:23;97314.56;;;20.42;93.88
20987;BME280;10652;50.306;8.570;2023-07-28T08:56:26;97317.56;;;20.57;92.31
20987;BME280;10652;50.306;8.570;2023-07-28T09:00:30;97316.94;;;20.63;91.78
20987;BME280;10652;50.306;8.570;2023-07-28T09:04:32;97325.63;;;20.65;91.93
20987;BME280;10652;50.306;8.570;2023-07-28T09:08:35;97320.63;;;20.62;93.53
20987;BME280;10652;50.306;8.570;2023-07-28T09:12:48;97324.84;;;21.26;92.97
20987;BME280;10652;50.306;8.570;2023-07-28T09:16:51;97328.06;;;21.55;89.40
20987;BME280;10652;50.306;8.570;2023-07-28T09:20:54;97324.84;;;21.77;85.56
20987;BME280;10652;50.306;8.570;2023-07-28T09:24:56;97324.13;;;21.67;84.15
20987;BME280;10652;50.306;8.570;2023-07-28T09:28:59;97330.03;;;21.53;84.90
20987;BME280;10652;50.306;8.570;2023-07-28T09:33:01;97331.34;;;21.49;84.90
20987;BME280;10652;50.306;8.570;2023-07-28T09:37:05;97333.38;;;21.47;85.67
20987;BME280;10652;50.306;8.570;2023-07-28T09:41:08;97325.06;;;21.58;84.58
20987;BME280;10652;50.306;8.570;2023-07-28T09:45:13;97327.81;;;22.08;81.59
20987;BME280;10652;50.306;8.570;2023-07-28T09:49:36;97332.16;;;22.51;77.90
20987;BME280;10652;50.306;8.570;2023-07-28T09:53:46;97324.72;;;22.87;76.78
20987;BME280;10652;50.306;8.570;2023-07-28T09:57:52;97330.59;;;23.07;74.13
20987;BME280;10652;50.306;8.570;2023-07-28T10:01:58;97321.50;;;22.75;72.72
20987;BME280;10652;50.306;8.570;2023-07-28T10:06:02;97331.03;;;22.70;73.63
20987;BME280;10652;50.306;8.570;2023-07-28T10:10:08;97328.50;;;22.60;72.89
20987;BME280;10652;50.306;8.570;2023-07-28T10:14:25;97329.19;;;22.70;73.96
20987;BME280;10652;50.306;8.570;2023-07-28T10:18:27;97331.41;;;22.99;73.25
20987;BME280;10652;50.306;8.570;2023-07-28T10:22:29;97324.06;;;23.01;70.42
20987;BME280;10652;50.306;8.570;2023-07-28T10:26:39;97330.59;;;23.15;69.34
20987;BME280;10652;50.306;8.570;2023-07-28T10:30:54;97336.97;;;22.98;68.85
20987;BME280;10652;50.306;8.570;2023-07-28T10:35:00;97335.25;;;23.13;68.66
20987;BME280;10652;50.306;8.570;2023-07-28T10:43:09;97351.81;;;22.84;69.42
20987;BME280;10652;50.306;8.570;2023-07-28T10:47:11;97345.31;;;22.87;71.72
20987;BME280;10652;50.306;8.570;2023-07-28T10:51:25;97332.59;;;22.89;69.94
20987;BME280;10652;50.306;8.570;2023-07-28T10:55:31;97337.44;;;23.01;69.77
20987;BME280;10652;50.306;8.570;2023-07-28T10:59:35;97339.13;;;23.02;70.89
20987;BME280;10652;50.306;8.570;2023-07-28T11:03:37;97339.28;;;23.33;70.22
20987;BME280;10652;50.306;8.570;2023-07-28T11:07:44;97346.97;;;23.68;63.94
20987;BME280;10652;50.306;8.570;2023-07-28T11:11:49;97352.94;;;23.87;63.18
20987;BME280;10652;50.306;8.570;2023-07-28T11:15:51;97343.47;;;24.15;62.63
20987;BME280;10652;50.306;8.570;2023-07-28T11:19:53;97351.81;;;24.28;62.25
20987;BME280;10652;50.306;8.570;2023-07-28T11:23:57;97334.41;;;24.16;61.72
20987;BME280;10652;50.306;8.570;2023-07-28T11:28:03;97340.81;;;24.07;62.70
20987;BME280;10652;50.306;8.570;2023-07-28T11:32:09;97348.63;;;23.70;62.69
20987;BME280;10652;50.306;8.570;2023-07-28T11:36:11;97351.69;;;23.66;64.56
20987;BME280;10652;50.306;8.570;2023-07-28T11:40:16;97346.53;;;23.96;64.62
20987;BME280;10652;50.306;8.570;2023-07-28T11:44:18;97348.81;;;24.23;62.97
20987;BME280;10652;50.306;8.570;2023-07-28T11:48:20;97351.81;;;24.28;61.88
20987;BME280;10652;50.306;8.570;2023-07-28T11:52:23;97353.94;;;24.41;62.25
20987;BME280;10652;50.306;8.570;2023-07-28T11:56:28;97346.28;;;24.61;60.19
20987;BME280;10652;50.306;8.570;2023-07-28T12:00:32;97343.69;;;24.67;59.52
20987;BME280;10652;50.306;8.570;2023-07-28T12:04:39;97341.94;;;24.82;58.93
20987;BME280;10652;50.306;8.570;2023-07-28T12:08:44;97337.53;;;24.89;58.68
20987;BME280;10652;50.306;8.570;2023-07-28T12:12:47;97335.28;;;25.01;58.00
20987;BME280;10652;50.306;8.570;2023-07-28T12:16:52;97331.22;;;25.05;57.07
20987;BME280;10652;50.306;8.570;2023-07-28T12:20:58;97341.38;;;24.95;56.62
20987;BME280;10652;50.306;8.570;2023-07-28T12:25:02;97340.72;;;24.85;57.81
20987;BME280;10652;50.306;8.570;2023-07-28T12:29:04;97346.75;;;24.95;56.61
20987;BME280;10652;50.306;8.570;2023-07-28T12:33:09;97332.16;;;24.89;57.02
20987;BME280;10652;50.306;8.570;2023-07-28T12:37:22;97338.78;;;24.79;57.07
20987;BME280;10652;50.306;8.570;2023-07-28T12:41:27;97336.47;;;24.68;57.97
20987;BME280;10652;50.306;8.570;2023-07-28T12:45:42;97347.00;;;24.77;58.20
20987;BME280;10652;50.306;8.570;2023-07-28T12:49:47;97336.34;;;24.92;57.23
20987;BME280;10652;50.306;8.570;2023-07-28T12:53:52;97341.38;;;24.95;57.23
20987;BME280;10652;50.306;8.570;2023-07-28T12:57:54;97345.00;;;24.79;56.88
20987;BME280;10652;50.306;8.570;2023-07-28T13:01:57;97347.00;;;24.77;58.05
20987;BME280;10652;50.306;8.570;2023-07-28T13:05:59;97355.06;;;24.77;58.49
20987;BME280;10652;50.306;8.570;2023-07-28T13:10:02;97348.78;;;24.62;60.18
20987;BME280;10652;50.306;8.570;2023-07-28T13:14:05;97355.75;;;24.71;59.87
20987;BME280;10652;50.306;8.570;2023-07-28T13:18:07;97350.81;;;24.91;60.26
20987;BME280;10652;50.306;8.570;2023-07-28T13:22:09;97348.94;;;25.14;58.82
20987;BME280;10652;50.306;8.570;2023-07-28T13:26:12;97350.94;;;25.20;58.01
20987;BME280;10652;50.306;8.570;2023-07-28T13:30:14;97341.47;;;25.24;58.35
20987;BME280;10652;50.306;8.570;2023-07-28T13:34:16;97344.09;;;25.32;58.88
20987;BME280;10652;50.306;8.570;2023-07-28T13:38:19;97339.28;;;25.05;58.63
20987;BME280;10652;50.306;8.570;2023-07-28T13:42:21;97351.97;;;24.66;60.64
20987;BME280;10652;50.306;8.570;2023-07-28T13:46:23;97348.44;;;24.34;60.98
20987;BME280;10652;50.306;8.570;2023-07-28T13:50:25;97345.75;;;24.34;62.54
20987;BME280;10652;50.306;8.570;2023-07-28T13:54:39;97339.72;;;24.32;62.34
20987;BME280;10652;50.306;8.570;2023-07-28T13:58:44;97342.56;;;24.31;60.99
20987;BME280;10652;50.306;8.570;2023-07-28T14:02:46;97343.41;;;24.31;61.51
20987;BME280;10652;50.306;8.570;2023-07-28T14:06:48;97330.50;;;24.27;63.32
20987;BME280;10652;50.306;8.570;2023-07-28T14:10:51;97341.41;;;24.17;62.09
20987;BME280;10652;50.306;8.570;2023-07-28T14:14:54;97344.53;;;23.98;62.55
20987;BME280;10652;50.306;8.570;2023-07-28T14:18:56;97340.69;;;23.92;63.66
20987;BME280;10652;50.306;8.570;2023-07-28T14:22:59;97336.63;;;24.04;63.97
20987;BME280;10652;50.306;8.570;2023-07-28T14:27:03;97341.47;;;24.09;63.46
20987;BME280;10652;50.306;8.570;2023-07-28T14:31:05;97342.13;;;24.11;63.09
20987;BME280;10652;50.306;8.570;2023-07-28T14:35:07;97342.25;;;24.18;62.38
20987;BME280;10652;50.306;8.570;2023-07-28T14:39:09;97343.09;;;24.18;61.59
20987;BME280;10652;50.306;8.570;2023-07-28T14:43:13;97340.75;;;24.23;62.38
20987;BME280;10652;50.306;8.570;2023-07-28T14:47:15;97340.38;;;24.34;61.95
20987;BME280;10652;50.306;8.570;2023-07-28T14:51:17;97347.72;;;24.40;63.05
20987;BME280;10652;50.306;8.570;2023-07-28T14:55:19;97340.91;;;24.30;62.39
20987;BME280;10652;50.306;8.570;2023-07-28T14:59:22;97335.56;;;24.30;62.83
20987;BME280;10652;50.306;8.570;2023-07-28T15:03:28;97331.88;;;24.23;62.94
20987;BME280;10652;50.306;8.570;2023-07-28T15:07:30;97336.50;;;23.98;61.80
20987;BME280;10652;50.306;8.570;2023-07-28T15:11:32;97337.38;;;23.82;63.72
20987;BME280;10652;50.306;8.570;2023-07-28T15:15:35;97342.28;;;23.62;64.37
20987;BME280;10652;50.306;8.570;2023-07-28T15:19:37;97341.63;;;23.28;65.87
20987;BME280;10652;50.306;8.570;2023-07-28T15:23:39;97333.94;;;22.93;66.09
20987;BME280;10652;50.306;8.570;2023-07-28T15:27:42;97344.22;;;22.63;67.29
20987;BME280;10652;50.306;8.570;2023-07-28T15:31:44;97345.22;;;22.54;69.02
20987;BME280;10652;50.306;8.570;2023-07-28T15:35:47;97344.91;;;22.57;71.31
20987;BME280;10652;50.306;8.570;2023-07-28T15:39:50;97351.44;;;22.63;70.31
20987;BME280;10652;50.306;8.570;2023-07-28T15:43:52;97354.94;;;22.63;71.53
20987;BME280;10652;50.306;8.570;2023-07-28T15:47:54;97345.91;;;22.64;70.87
20987;BME280;10652;50.306;8.570;2023-07-28T15:51:56;97351.47;;;22.71;70.64
20987;BME280;10652;50.306;8.570;2023-07-28T15:55:58;97342.47;;;22.88;70.20
20987;BME280;10652;50.306;8.570;2023-07-28T16:00:00;97341.47;;;23.13;69.04
20987;BME280;10652;50.306;8.570;2023-07-28T16:04:12;97354.69;;;23.23;69.37
20987;BME280;10652;50.306;8.570;2023-07-28T16:08:14;97348.84;;;23.11;69.15
20987;BME280;10652;50.306;8.570;2023-07-28T16:12:16;97350.78;;;22.77;67.21
20987;BME280;10652;50.306;8.570;2023-07-28T16:16:19;97356.59;;;22.48;70.33
20987;BME280;10652;50.306;8.570;2023-07-28T16:20:21;97357.53;;;22.31;70.97
20987;BME280;10652;50.306;8.570;2023-07-28T16:24:24;97352.78;;;22.17;71.30
20987;BME280;10652;50.306;8.570;2023-07-28T16:28:27;97341.38;;;22.07;73.37
20987;BME280;10652;50.306;8.570;2023-07-28T16:32:31;97341.53;;;22.13;74.27
20987;BME280;10652;50.306;8.570;2023-07-28T16:36:33;97337.88;;;22.14;75.37
20987;BME280;10652;50.306;8.570;2023-07-28T16:40:35;97345.78;;;22.16;76.62
20987;BME280;10652;50.306;8.570;2023-07-28T16:44:38;97340.44;;;22.16;76.38
20987;BME280;10652;50.306;8.570;2023-07-28T16:48:40;97334.41;;;22.22;77.54
20987;BME280;10652;50.306;8.570;2023-07-28T16:52:43;97335.75;;;22.26;79.08
20987;BME280;10652;50.306;8.570;2023-07-28T16:56:45;97340.78;;;22.21;78.29
20987;BME280;10652;50.306;8.570;2023-07-28T17:00:48;97336.16;;;21.97;79.04
20987;BME280;10652;50.306;8.570;2023-07-28T17:04:50;97335.53;;;21.77;80.19
20987;BME280;10652;50.306;8.570;2023-07-28T17:08:52;97338.31;;;21.68;81.20
20987;BME280;10652;50.306;8.570;2023-07-28T17:12:54;97335.13;;;21.64;82.04
20987;BME280;10652;50.306;8.570;2023-07-28T17:16:56;97332.31;;;21.66;80.67
20987;BME280;10652;50.306;8.570;2023-07-28T17:20:59;97339.00;;;21.70;80.66
20987;BME280;10652;50.306;8.570;2023-07-28T17:25:02;97343.53;;;21.69;80.48
20987;BME280;10652;50.306;8.570;2023-07-28T17:29:04;97340.16;;;21.67;81.45
20987;BME280;10652;50.306;8.570;2023-07-28T17:33:06;97341.50;;;21.71;81.49
20987;BME280;10652;50.306;8.570;2023-07-28T17:37:08;97338.03;;;21.71;78.03
20987;BME280;10652;50.306;8.570;2023-07-28T17:41:10;97339.69;;;21.72;76.55
20987;BME280;10652;50.306;8.570;2023-07-28T17:45:12;97343.91;;;21.82;77.07
20987;BME280;10652;50.306;8.570;2023-07-28T17:49:14;97345.13;;;21.88;77.60
20987;BME280;10652;50.306;8.570;2023-07-28T17:53:17;97353.94;;;21.80;76.94
20987;BME280;10652;50.306;8.570;2023-07-28T17:57:19;97355.72;;;21.72;76.59
20987;BME280;10652;50.306;8.570;2023-07-28T18:01:21;97357.84;;;21.60;77.06
20987;BME280;10652;50.306;8.570;2023-07-28T18:05:24;97358.09;;;21.49;77.62
20987;BME280;10652;50.306;8.570;2023-07-28T18:09:26;97357.25;;;21.48;78.38
20987;BME280;10652;50.306;8.570;2023-07-28T18:13:29;97357.94;;;21.51;78.51
20987;BME280;10652;50.306;8.570;2023-07-28T18:17:31;97360.09;;;21.47;77.99
20987;BME280;10652;50.306;8.570;2023-07-28T18:21:33;97356.28;;;21.32;76.10
20987;BME280;10652;50.306;8.570;2023-07-28T18:25:36;97361.22;;;21.27;77.14
20987;BME280;10652;50.306;8.570;2023-07-28T18:29:38;97368.53;;;21.17;77.43
20987;BME280;10652;50.306;8.570;2023-07-28T18:33:40;97369.75;;;21.04;77.50
20987;BME280;10652;50.306;8.570;2023-07-28T18:37:42;97373.66;;;20.92;77.36
20987;BME280;10652;50.306;8.570;2023-07-28T18:41:44;97381.59;;;20.84;78.39
20987;BME280;10652;50.306;8.570;2023-07-28T18:45:46;97393.19;;;20.75;79.42
20987;BME280;10652;50.306;8.570;2023-07-28T18:49:48;97393.81;;;20.59;81.12
20987;BME280;10652;50.306;8.570;2023-07-28T18:53:51;97397.97;;;20.44;83.82
20987;BME280;10652;50.306;8.570;2023-07-28T18:57:53;97399.19;;;20.23;86.07
20987;BME280;10652;50.306;8.570;2023-07-28T19:01:55;97405.28;;;20.15;87.71
20987;BME280;10652;50.306;8.570;2023-07-28T19:05:59;97403.19;;;20.09;89.39
20987;BME280;10652;50.306;8.570;2023-07-28T19:10:02;97404.06;;;20.00;90.14
20987;BME280;10652;50.306;8.570;2023-07-28T19:14:08;97413.75;;;19.91;91.13
20987;BME280;10652;50.306;8.570;2023-07-28T19:18:10;97412.38;;;19.87;90.79
20987;BME280;10652;50.306;8.570;2023-07-28T19:22:12;97414.34;;;19.85;90.13
20987;BME280;10652;50.306;8.570;2023-07-28T19:26:16;97410.28;;;19.81;89.54
20987;BME280;10652;50.306;8.570;2023-07-28T19:30:18;97412.53;;;19.76;89.53
20987;BME280;10652;50.306;8.570;2023-07-28T19:34:20;97407.50;;;19.73;90.17
20987;BME280;10652;50.306;8.570;2023-07-28T19:38:22;97405.97;;;19.70;91.20
20987;BME280;10652;50.306;8.570;2023-07-28T19:42:24;97405.13;;;19.70;92.15
20987;BME280;10652;50.306;8.570;2023-07-28T19:46:26;97401.34;;;19.63;92.60
20987;BME280;10652;50.306;8.570;2023-07-28T19:50:29;97414.69;;;19.63;92.59
20987;BME280;10652;50.306;8.570;2023-07-28T19:54:47;97415.13;;;19.58;93.12
20987;BME280;10652;50.306;8.570;2023-07-28T19:58:49;97411.34;;;19.51;92.54
20987;BME280;10652;50.306;8.570;2023-07-28T20:02:51;97424.69;;;19.42;92.78
20987;BME280;10652;50.306;8.570;2023-07-28T20:06:53;97430.44;;;19.27;94.39
20987;BME280;10652;50.306;8.570;2023-07-28T20:10:56;97438.41;;;19.08;96.34
20987;BME280;10652;50.306;8.570;2023-07-28T20:14:58;97441.34;;;19.05;97.61
20987;BME280;10652;50.306;8.570;2023-07-28T20:19:00;97450.06;;;19.07;98.25
20987;BME280;10652;50.306;8.570;2023-07-28T20:23:02;97464.03;;;19.09;99.20
20987;BME280;10652;50.306;8.570;2023-07-28T20:27:05;97452.72;;;19.07;100.00
20987;BME280;10652;50.306;8.570;2023-07-28T20:31:12;97458.03;;;19.07;100.00
20987;BME280;10652;50.306;8.570;2023-07-28T20:35:14;97452.97;;;19.04;100.00
20987;BME280;10652;50.306;8.570;2023-07-28T20:39:16;97448.47;;;18.95;100.00
20987;BME280;10652;50.306;8.570;2023-07-28T20:43:19;97454.63;;;18.86;100.00
20987;BME280;10652;50.306;8.570;2023-07-28T20:47:21;97445.81;;;18.85;100.00
20987;BME280;10652;50.306;8.570;2023-07-28T20:51:23;97447.34;;;18.78;100.00
20987;BME280;10652;50.306;8.570;2023-07-28T20:55:25;97451.56;;;18.71;100.00
20987;BME280;10652;50.306;8.570;2023-07-28T20:59:27;97447.88;;;18.63;100.00
20987;BME280;10652;50.306;8.570;2023-07-28T21:03:29;97456.81;;;18.52;100.00
20987;BME280;10652;50.306;8.570;2023-07-28T21:07:34;97446.16;;;18.42;100.00
20987;BME280;10652;50.306;8.570;2023-07-28T21:11:36;97452.28;;;18.33;100.00
20987;BME280;10652;50.306;8.570;2023-07-28T21:15:38;97447.84;;;18.23;100.00
20987;BME280;10652;50.306;8.570;2023-07-28T21:19:42;97444.91;;;18.16;100.00
20987;BME280;10652;50.306;8.570;2023-07-28T21:23:45;97450.47;;;18.13;100.00
20987;BME280;10652;50.306;8.570;2023-07-28T21:27:47;97461.66;;;18.07;100.00